sensor_id;sensor_type;location;lat;lon;timestamp;P1;durP1;ratioP1;P2;durP2;ratioP2
70342;SDS011;57767;42.068;24.752;2024-03-02T00:00:22;73.88;;;42.65;;
70342;SDS011;57767;42.068;24.752;2024-03-02T00:01:26;76.00;;;43.60;;
70342;SDS011;57767;42.068;24.752;2024-03-02T00:02:27;72.10;;;42.65;;
70342;SDS011;57767;42.068;24.752;2024-03-02T00:03:29;75.82;;;41.60;;
70342;SDS011;57767;42.068;24.752;2024-03-02T00:04:31;74.72;;;41.05;;
70342;SDS011;57767;42.068;24.752;2024-03-02T00:05:32;78.55;;;41.85;;
70342;SDS011;57767;42.068;24.752;2024-03-02T00:06:34;79.97;;;42.42;;
70342;SDS011;57767;42.068;24.752;2024-03-02T00:07:36;74.47;;;41.33;;
70342;SDS011;57767;42.068;24.752;2024-03-02T00:08:37;72.85;;;40.15;;
70342;SDS011;57767;42.068;24.752;2024-03-02T00:09:39;74.20;;;42.28;;
70342;SDS011;57767;42.068;24.752;2024-03-02T00:10:41;81.40;;;41.97;;
70342;SDS011;57767;42.068;24.752;2024-03-02T00:11:42;76.63;;;41.17;;
70342;SDS011;57767;42.068;24.752;2024-03-02T00:12:45;75.57;;;40.67;;
70342;SDS011;57767;42.068;24.752;2024-03-02T00:13:50;77.90;;;43.35;;
70342;SDS011;57767;42.068;24.752;2024-03-02T00:14:54;62.85;;;40.95;;
70342;SDS011;57767;42.068;24.752;2024-03-02T00:15:56;82.93;;;42.08;;
70342;SDS011;57767;42.068;24.752;2024-03-02T00:16:59;73.25;;;41.40;;
70342;SDS011;57767;42.068;24.752;2024-03-02T00:18:00;69.55;;;41.05;;
70342;SDS011;57767;42.068;24.752;2024-03-02T00:19:03;75.00;;;41.88;;
70342;SDS011;57767;42.068;24.752;2024-03-02T00:20:08;78.45;;;40.97;;
70342;SDS011;57767;42.068;24.752;2024-03-02T00:21:11;76.32;;;42.50;;
70342;SDS011;57767;42.068;24.752;2024-03-02T00:22:14;77.15;;;41.53;;
70342;SDS011;57767;42.068;24.752;2024-03-02T00:23:16;73.85;;;41.42;;
70342;SDS011;57767;42.068;24.752;2024-03-02T00:24:21;77.07;;;41.38;;
70342;SDS011;57767;42.068;24.752;2024-03-02T00:26:56;73.25;;;41.30;;
70342;SDS011;57767;42.068;24.752;2024-03-02T00:27:57;84.10;;;43.83;;
70342;SDS011;57767;42.068;24.752;2024-03-02T00:28:59;85.07;;;45.17;;
70342;SDS011;57767;42.068;24.752;2024-03-02T00:30:32;77.55;;;44.17;;
70342;SDS011;57767;42.068;24.752;2024-03-02T00:31:52;82.55;;;43.38;;
70342;SDS011;57767;42.068;24.752;2024-03-02T00:32:54;78.50;;;44.00;;
70342;SDS011;57767;42.068;24.752;2024-03-02T00:33:56;87.13;;;44.65;;
70342;SDS011;57767;42.068;24.752;2024-03-02T00:35:04;89.70;;;45.78;;
70342;SDS011;57767;42.068;24.752;2024-03-02T00:36:06;84.78;;;44.05;;
70342;SDS011;57767;42.068;24.752;2024-03-02T00:37:09;82.60;;;44.25;;
70342;SDS011;57767;42.068;24.752;2024-03-02T00:38:13;86.10;;;43.70;;
70342;SDS011;57767;42.068;24.752;2024-03-02T00:39:16;81.55;;;43.20;;
70342;SDS011;57767;42.068;24.752;2024-03-02T00:40:19;78.60;;;43.38;;
70342;SDS011;57767;42.068;24.752;2024-03-02T00:41:21;83.20;;;43.40;;
70342;SDS011;57767;42.068;24.752;2024-03-02T00:42:25;78.28;;;43.70;;
70342;SDS011;57767;42.068;24.752;2024-03-02T00:47:54;70.13;;;41.67;;
70342;SDS011;57767;42.068;24.752;2024-03-02T00:48:56;81.75;;;44.78;;
70342;SDS011;57767;42.068;24.752;2024-03-02T00:50:00;73.43;;;42.15;;
70342;SDS011;57767;42.068;24.752;2024-03-02T00:51:04;86.22;;;46.10;;
70342;SDS011;57767;42.068;24.752;2024-03-02T00:52:06;85.13;;;45.03;;
70342;SDS011;57767;42.068;24.752;2024-03-02T00:53:11;85.22;;;45.20;;
70342;SDS011;57767;42.068;24.752;2024-03-02T00:54:14;88.40;;;46.17;;
70342;SDS011;57767;42.068;24.752;2024-03-02T00:55:16;84.63;;;47.20;;
70342;SDS011;57767;42.068;24.752;2024-03-02T00:56:17;85.35;;;46.72;;
70342;SDS011;57767;42.068;24.752;2024-03-02T00:57:20;92.15;;;48.85;;
70342;SDS011;57767;42.068;24.752;2024-03-02T00:58:21;95.50;;;48.92;;
70342;SDS011;57767;42.068;24.752;2024-03-02T00:59:23;99.78;;;48.70;;
70342;SDS011;57767;42.068;24.752;2024-03-02T01:00:25;101.60;;;46.55;;
70342;SDS011;57767;42.068;24.752;2024-03-02T01:01:29;100.00;;;48.35;;
70342;SDS011;57767;42.068;24.752;2024-03-02T01:02:31;107.57;;;48.63;;
70342;SDS011;57767;42.068;24.752;2024-03-02T01:03:33;111.18;;;49.10;;
70342;SDS011;57767;42.068;24.752;2024-03-02T01:04:35;105.70;;;50.17;;
70342;SDS011;57767;42.068;24.752;2024-03-02T01:05:40;116.85;;;50.22;;
70342;SDS011;57767;42.068;24.752;2024-03-02T01:06:43;110.88;;;48.78;;
70342;SDS011;57767;42.068;24.752;2024-03-02T01:07:45;112.65;;;51.45;;
70342;SDS011;57767;42.068;24.752;2024-03-02T01:08:46;113.97;;;51.17;;
70342;SDS011;57767;42.068;24.752;2024-03-02T01:09:52;120.28;;;49.30;;
70342;SDS011;57767;42.068;24.752;2024-03-02T01:10:54;117.38;;;51.10;;
70342;SDS011;57767;42.068;24.752;2024-03-02T01:11:56;117.85;;;49.53;;
70342;SDS011;57767;42.068;24.752;2024-03-02T01:12:58;116.85;;;50.15;;
70342;SDS011;57767;42.068;24.752;2024-03-02T01:13:59;113.88;;;48.72;;
70342;SDS011;57767;42.068;24.752;2024-03-02T01:15:01;117.57;;;50.70;;
70342;SDS011;57767;42.068;24.752;2024-03-02T01:16:05;114.93;;;49.60;;
70342;SDS011;57767;42.068;24.752;2024-03-02T01:17:07;120.80;;;51.70;;
70342;SDS011;57767;42.068;24.752;2024-03-02T01:18:08;119.35;;;49.53;;
70342;SDS011;57767;42.068;24.752;2024-03-02T01:19:10;115.28;;;50.03;;
70342;SDS011;57767;42.068;24.752;2024-03-02T01:20:12;119.68;;;51.80;;
70342;SDS011;57767;42.068;24.752;2024-03-02T01:21:14;117.38;;;50.08;;
70342;SDS011;57767;42.068;24.752;2024-03-02T01:22:16;121.43;;;50.50;;
70342;SDS011;57767;42.068;24.752;2024-03-02T01:23:21;127.38;;;50.03;;
70342;SDS011;57767;42.068;24.752;2024-03-02T01:24:26;134.75;;;52.33;;
70342;SDS011;57767;42.068;24.752;2024-03-02T01:25:28;128.10;;;51.17;;
70342;SDS011;57767;42.068;24.752;2024-03-02T01:26:30;131.35;;;52.10;;
70342;SDS011;57767;42.068;24.752;2024-03-02T01:27:32;143.55;;;52.75;;
70342;SDS011;57767;42.068;24.752;2024-03-02T01:28:33;147.15;;;54.20;;
70342;SDS011;57767;42.068;24.752;2024-03-02T01:29:35;135.15;;;52.13;;
70342;SDS011;57767;42.068;24.752;2024-03-02T01:30:36;139.07;;;52.28;;
70342;SDS011;57767;42.068;24.752;2024-03-02T01:31:38;131.38;;;51.33;;
70342;SDS011;57767;42.068;24.752;2024-03-02T01:32:43;151.38;;;54.58;;
70342;SDS011;57767;42.068;24.752;2024-03-02T01:33:45;147.50;;;55.70;;
70342;SDS011;57767;42.068;24.752;2024-03-02T01:34:46;148.13;;;53.28;;
70342;SDS011;57767;42.068;24.752;2024-03-02T01:35:48;136.75;;;53.80;;
70342;SDS011;57767;42.068;24.752;2024-03-02T01:36:50;151.80;;;54.78;;
70342;SDS011;57767;42.068;24.752;2024-03-02T01:37:51;157.45;;;56.65;;
70342;SDS011;57767;42.068;24.752;2024-03-02T01:38:53;153.63;;;54.92;;
70342;SDS011;57767;42.068;24.752;2024-03-02T01:39:55;154.90;;;55.47;;
70342;SDS011;57767;42.068;24.752;2024-03-02T01:40:56;172.50;;;56.78;;
70342;SDS011;57767;42.068;24.752;2024-03-02T01:41:59;174.00;;;57.80;;
70342;SDS011;57767;42.068;24.752;2024-03-02T01:43:01;160.32;;;54.83;;
70342;SDS011;57767;42.068;24.752;2024-03-02T01:44:03;174.82;;;58.55;;
70342;SDS011;57767;42.068;24.752;2024-03-02T01:45:05;175.55;;;55.85;;
70342;SDS011;57767;42.068;24.752;2024-03-02T01:46:08;163.13;;;56.30;;
70342;SDS011;57767;42.068;24.752;2024-03-02T01:47:10;185.27;;;58.30;;
70342;SDS011;57767;42.068;24.752;2024-03-02T01:48:12;173.05;;;57.65;;
70342;SDS011;57767;42.068;24.752;2024-03-02T01:49:14;171.60;;;57.65;;
70342;SDS011;57767;42.068;24.752;2024-03-02T01:50:16;182.00;;;59.80;;
70342;SDS011;57767;42.068;24.752;2024-03-02T01:51:26;166.95;;;58.10;;
70342;SDS011;57767;42.068;24.752;2024-03-02T01:52:28;179.25;;;55.58;;
70342;SDS011;57767;42.068;24.752;2024-03-02T01:53:30;182.45;;;57.80;;
70342;SDS011;57767;42.068;24.752;2024-03-02T01:54:32;181.48;;;57.70;;
70342;SDS011;57767;42.068;24.752;2024-03-02T01:55:34;174.63;;;56.65;;
70342;SDS011;57767;42.068;24.752;2024-03-02T01:56:36;185.98;;;56.60;;
70342;SDS011;57767;42.068;24.752;2024-03-02T01:57:37;182.20;;;57.38;;
70342;SDS011;57767;42.068;24.752;2024-03-02T01:58:39;188.73;;;57.90;;
70342;SDS011;57767;42.068;24.752;2024-03-02T01:59:40;190.23;;;57.63;;
70342;SDS011;57767;42.068;24.752;2024-03-02T02:00:42;188.38;;;56.75;;
70342;SDS011;57767;42.068;24.752;2024-03-02T02:01:44;184.80;;;55.30;;
70342;SDS011;57767;42.068;24.752;2024-03-02T02:02:46;185.65;;;56.42;;
70342;SDS011;57767;42.068;24.752;2024-03-02T02:03:49;186.35;;;55.42;;
70342;SDS011;57767;42.068;24.752;2024-03-02T02:04:51;211.85;;;58.17;;
70342;SDS011;57767;42.068;24.752;2024-03-02T02:05:52;205.23;;;59.40;;
70342;SDS011;57767;42.068;24.752;2024-03-02T02:06:54;209.80;;;58.15;;
70342;SDS011;57767;42.068;24.752;2024-03-02T02:07:56;192.70;;;59.45;;
70342;SDS011;57767;42.068;24.752;2024-03-02T02:09:00;196.38;;;57.65;;
70342;SDS011;57767;42.068;24.752;2024-03-02T02:10:01;200.40;;;57.58;;
70342;SDS011;57767;42.068;24.752;2024-03-02T02:11:03;194.90;;;57.28;;
70342;SDS011;57767;42.068;24.752;2024-03-02T02:12:05;184.00;;;57.03;;
70342;SDS011;57767;42.068;24.752;2024-03-02T02:13:08;193.70;;;56.63;;
70342;SDS011;57767;42.068;24.752;2024-03-02T02:14:09;186.68;;;57.45;;
70342;SDS011;57767;42.068;24.752;2024-03-02T02:15:21;165.38;;;52.85;;
70342;SDS011;57767;42.068;24.752;2024-03-02T02:16:30;179.90;;;53.88;;
70342;SDS011;57767;42.068;24.752;2024-03-02T02:17:31;155.02;;;50.97;;
70342;SDS011;57767;42.068;24.752;2024-03-02T02:18:33;159.35;;;52.40;;
70342;SDS011;57767;42.068;24.752;2024-03-02T02:19:35;170.07;;;53.53;;
70342;SDS011;57767;42.068;24.752;2024-03-02T02:20:37;167.20;;;53.60;;
70342;SDS011;57767;42.068;24.752;2024-03-02T02:21:41;170.65;;;52.13;;
70342;SDS011;57767;42.068;24.752;2024-03-02T02:24:05;149.57;;;50.53;;
70342;SDS011;57767;42.068;24.752;2024-03-02T02:25:07;165.07;;;50.50;;
70342;SDS011;57767;42.068;24.752;2024-03-02T02:26:08;154.63;;;51.25;;
70342;SDS011;57767;42.068;24.752;2024-03-02T02:27:10;152.60;;;50.10;;
70342;SDS011;57767;42.068;24.752;2024-03-02T02:28:12;161.15;;;50.60;;
70342;SDS011;57767;42.068;24.752;2024-03-02T02:29:13;166.30;;;50.95;;
70342;SDS011;57767;42.068;24.752;2024-03-02T02:30:49;163.90;;;52.13;;
70342;SDS011;57767;42.068;24.752;2024-03-02T02:31:44;159.15;;;50.63;;
70342;SDS011;57767;42.068;24.752;2024-03-02T02:32:45;158.90;;;51.42;;
70342;SDS011;57767;42.068;24.752;2024-03-02T02:33:47;174.82;;;50.83;;
70342;SDS011;57767;42.068;24.752;2024-03-02T02:34:52;170.18;;;50.78;;
70342;SDS011;57767;42.068;24.752;2024-03-02T02:35:54;150.57;;;48.38;;
70342;SDS011;57767;42.068;24.752;2024-03-02T02:36:55;159.02;;;48.67;;
70342;SDS011;57767;42.068;24.752;2024-03-02T02:37:57;158.15;;;48.60;;
70342;SDS011;57767;42.068;24.752;2024-03-02T02:39:02;142.77;;;47.08;;
70342;SDS011;57767;42.068;24.752;2024-03-02T02:40:05;161.40;;;50.75;;
70342;SDS011;57767;42.068;24.752;2024-03-02T02:41:07;160.80;;;48.45;;
70342;SDS011;57767;42.068;24.752;2024-03-02T02:42:08;133.00;;;47.17;;
70342;SDS011;57767;42.068;24.752;2024-03-02T02:43:10;138.93;;;46.97;;
70342;SDS011;57767;42.068;24.752;2024-03-02T02:44:12;146.75;;;48.08;;
70342;SDS011;57767;42.068;24.752;2024-03-02T02:45:14;159.73;;;48.33;;
70342;SDS011;57767;42.068;24.752;2024-03-02T02:46:16;157.02;;;48.10;;
70342;SDS011;57767;42.068;24.752;2024-03-02T02:47:18;147.93;;;48.08;;
70342;SDS011;57767;42.068;24.752;2024-03-02T02:48:19;159.65;;;48.28;;
70342;SDS011;57767;42.068;24.752;2024-03-02T02:49:21;153.82;;;48.47;;
70342;SDS011;57767;42.068;24.752;2024-03-02T02:50:23;155.43;;;47.03;;
70342;SDS011;57767;42.068;24.752;2024-03-02T02:51:24;179.73;;;48.20;;
70342;SDS011;57767;42.068;24.752;2024-03-02T02:52:32;183.23;;;49.90;;
70342;SDS011;57767;42.068;24.752;2024-03-02T02:53:38;172.63;;;48.10;;
70342;SDS011;57767;42.068;24.752;2024-03-02T02:54:41;175.23;;;49.45;;
70342;SDS011;57767;42.068;24.752;2024-03-02T02:55:43;185.73;;;48.78;;
70342;SDS011;57767;42.068;24.752;2024-03-02T02:56:45;190.15;;;48.67;;
70342;SDS011;57767;42.068;24.752;2024-03-02T02:57:46;180.90;;;50.20;;
70342;SDS011;57767;42.068;24.752;2024-03-02T02:58:49;187.10;;;49.25;;
70342;SDS011;57767;42.068;24.752;2024-03-02T02:59:50;221.25;;;50.83;;
70342;SDS011;57767;42.068;24.752;2024-03-02T03:00:52;204.52;;;49.83;;
70342;SDS011;57767;42.068;24.752;2024-03-02T03:01:56;174.55;;;49.75;;
70342;SDS011;57767;42.068;24.752;2024-03-02T03:02:57;160.93;;;48.53;;
70342;SDS011;57767;42.068;24.752;2024-03-02T03:03:59;193.32;;;47.65;;
70342;SDS011;57767;42.068;24.752;2024-03-02T03:05:01;199.23;;;49.22;;
70342;SDS011;57767;42.068;24.752;2024-03-02T03:06:02;193.95;;;48.28;;
70342;SDS011;57767;42.068;24.752;2024-03-02T03:07:04;185.98;;;48.00;;
70342;SDS011;57767;42.068;24.752;2024-03-02T03:08:05;171.73;;;48.20;;
70342;SDS011;57767;42.068;24.752;2024-03-02T03:09:07;200.52;;;47.13;;
70342;SDS011;57767;42.068;24.752;2024-03-02T03:10:12;145.60;;;46.58;;
70342;SDS011;57767;42.068;24.752;2024-03-02T03:11:15;173.18;;;47.67;;
70342;SDS011;57767;42.068;24.752;2024-03-02T03:12:17;184.50;;;48.00;;
70342;SDS011;57767;42.068;24.752;2024-03-02T03:13:19;233.20;;;49.08;;
70342;SDS011;57767;42.068;24.752;2024-03-02T03:14:20;216.27;;;48.75;;
70342;SDS011;57767;42.068;24.752;2024-03-02T03:15:22;169.02;;;48.13;;
70342;SDS011;57767;42.068;24.752;2024-03-02T03:16:24;179.00;;;49.58;;
70342;SDS011;57767;42.068;24.752;2024-03-02T03:17:26;200.10;;;50.75;;
70342;SDS011;57767;42.068;24.752;2024-03-02T03:18:28;205.55;;;51.88;;
70342;SDS011;57767;42.068;24.752;2024-03-02T03:19:30;201.32;;;50.05;;
70342;SDS011;57767;42.068;24.752;2024-03-02T03:20:32;202.30;;;48.75;;
70342;SDS011;57767;42.068;24.752;2024-03-02T03:21:33;206.27;;;49.03;;
70342;SDS011;57767;42.068;24.752;2024-03-02T03:22:35;211.95;;;49.30;;
70342;SDS011;57767;42.068;24.752;2024-03-02T03:23:37;206.48;;;49.42;;
70342;SDS011;57767;42.068;24.752;2024-03-02T03:24:39;172.73;;;47.40;;
70342;SDS011;57767;42.068;24.752;2024-03-02T03:25:41;196.55;;;48.03;;
70342;SDS011;57767;42.068;24.752;2024-03-02T03:26:43;158.27;;;46.33;;
70342;SDS011;57767;42.068;24.752;2024-03-02T03:27:44;252.52;;;49.70;;
70342;SDS011;57767;42.068;24.752;2024-03-02T03:28:47;158.55;;;45.65;;
70342;SDS011;57767;42.068;24.752;2024-03-02T03:29:48;212.02;;;49.33;;
70342;SDS011;57767;42.068;24.752;2024-03-02T03:30:50;219.02;;;48.70;;
70342;SDS011;57767;42.068;24.752;2024-03-02T03:31:52;235.80;;;46.95;;
70342;SDS011;57767;42.068;24.752;2024-03-02T03:32:54;252.57;;;48.50;;
70342;SDS011;57767;42.068;24.752;2024-03-02T03:33:55;259.88;;;47.15;;
70342;SDS011;57767;42.068;24.752;2024-03-02T03:34:57;287.17;;;50.88;;
70342;SDS011;57767;42.068;24.752;2024-03-02T03:35:59;275.80;;;51.45;;
70342;SDS011;57767;42.068;24.752;2024-03-02T03:37:00;190.68;;;46.92;;
70342;SDS011;57767;42.068;24.752;2024-03-02T03:38:02;187.88;;;46.35;;
70342;SDS011;57767;42.068;24.752;2024-03-02T03:39:04;190.65;;;47.30;;
70342;SDS011;57767;42.068;24.752;2024-03-02T03:40:07;234.32;;;47.08;;
70342;SDS011;57767;42.068;24.752;2024-03-02T03:41:12;252.55;;;46.60;;
70342;SDS011;57767;42.068;24.752;2024-03-02T03:42:13;141.00;;;42.95;;
70342;SDS011;57767;42.068;24.752;2024-03-02T03:43:15;194.90;;;46.75;;
70342;SDS011;57767;42.068;24.752;2024-03-02T03:44:16;243.23;;;48.45;;
70342;SDS011;57767;42.068;24.752;2024-03-02T03:45:18;222.57;;;47.13;;
70342;SDS011;57767;42.068;24.752;2024-03-02T03:46:20;151.48;;;44.63;;
70342;SDS011;57767;42.068;24.752;2024-03-02T03:47:22;206.55;;;46.45;;
70342;SDS011;57767;42.068;24.752;2024-03-02T03:48:23;196.35;;;45.22;;
70342;SDS011;57767;42.068;24.752;2024-03-02T03:49:31;165.93;;;44.05;;
70342;SDS011;57767;42.068;24.752;2024-03-02T03:50:34;175.02;;;43.03;;
70342;SDS011;57767;42.068;24.752;2024-03-02T03:51:36;226.35;;;44.83;;
70342;SDS011;57767;42.068;24.752;2024-03-02T03:52:38;234.57;;;45.15;;
70342;SDS011;57767;42.068;24.752;2024-03-02T03:53:39;149.18;;;43.60;;
70342;SDS011;57767;42.068;24.752;2024-03-02T03:54:41;219.20;;;44.80;;
70342;SDS011;57767;42.068;24.752;2024-03-02T03:55:44;143.15;;;43.28;;
70342;SDS011;57767;42.068;24.752;2024-03-02T03:56:48;171.40;;;45.90;;
70342;SDS011;57767;42.068;24.752;2024-03-02T03:57:49;221.35;;;47.10;;
70342;SDS011;57767;42.068;24.752;2024-03-02T03:58:51;213.57;;;46.85;;
70342;SDS011;57767;42.068;24.752;2024-03-02T03:59:53;176.77;;;45.08;;
70342;SDS011;57767;42.068;24.752;2024-03-02T04:00:55;189.57;;;44.97;;
70342;SDS011;57767;42.068;24.752;2024-03-02T04:01:56;255.15;;;45.50;;
70342;SDS011;57767;42.068;24.752;2024-03-02T04:02:58;228.13;;;45.80;;
70342;SDS011;57767;42.068;24.752;2024-03-02T04:04:00;220.63;;;46.80;;
70342;SDS011;57767;42.068;24.752;2024-03-02T04:05:03;225.55;;;45.90;;
70342;SDS011;57767;42.068;24.752;2024-03-02T04:06:09;168.93;;;43.80;;
70342;SDS011;57767;42.068;24.752;2024-03-02T04:07:11;236.40;;;46.63;;
70342;SDS011;57767;42.068;24.752;2024-03-02T04:08:13;210.82;;;46.08;;
70342;SDS011;57767;42.068;24.752;2024-03-02T04:09:15;209.23;;;47.05;;
70342;SDS011;57767;42.068;24.752;2024-03-02T04:10:16;247.02;;;46.90;;
70342;SDS011;57767;42.068;24.752;2024-03-02T04:11:18;218.45;;;47.92;;
70342;SDS011;57767;42.068;24.752;2024-03-02T04:12:20;228.07;;;48.13;;
70342;SDS011;57767;42.068;24.752;2024-03-02T04:13:21;178.65;;;47.08;;
70342;SDS011;57767;42.068;24.752;2024-03-02T04:14:23;226.05;;;50.28;;
70342;SDS011;57767;42.068;24.752;2024-03-02T04:15:24;228.65;;;50.03;;
70342;SDS011;57767;42.068;24.752;2024-03-02T04:16:26;188.43;;;48.67;;
70342;SDS011;57767;42.068;24.752;2024-03-02T04:17:27;248.70;;;46.42;;
70342;SDS011;57767;42.068;24.752;2024-03-02T04:18:29;269.92;;;51.70;;
70342;SDS011;57767;42.068;24.752;2024-03-02T04:19:31;212.35;;;48.35;;
70342;SDS011;57767;42.068;24.752;2024-03-02T04:20:32;164.27;;;47.20;;
70342;SDS011;57767;42.068;24.752;2024-03-02T04:21:34;177.68;;;47.80;;
70342;SDS011;57767;42.068;24.752;2024-03-02T04:22:36;175.88;;;48.17;;
70342;SDS011;57767;42.068;24.752;2024-03-02T04:23:37;180.57;;;48.20;;
70342;SDS011;57767;42.068;24.752;2024-03-02T04:24:39;153.88;;;45.70;;
70342;SDS011;57767;42.068;24.752;2024-03-02T04:25:41;135.48;;;45.45;;
70342;SDS011;57767;42.068;24.752;2024-03-02T04:26:43;127.75;;;44.55;;
70342;SDS011;57767;42.068;24.752;2024-03-02T04:27:44;148.68;;;44.72;;
70342;SDS011;57767;42.068;24.752;2024-03-02T04:28:46;151.95;;;44.28;;
70342;SDS011;57767;42.068;24.752;2024-03-02T04:29:47;128.18;;;42.75;;
70342;SDS011;57767;42.068;24.752;2024-03-02T04:30:49;141.55;;;45.13;;
70342;SDS011;57767;42.068;24.752;2024-03-02T04:31:51;126.13;;;44.47;;
70342;SDS011;57767;42.068;24.752;2024-03-02T04:32:52;134.40;;;44.10;;
70342;SDS011;57767;42.068;24.752;2024-03-02T04:33:54;118.95;;;42.58;;
70342;SDS011;57767;42.068;24.752;2024-03-02T04:34:56;125.60;;;42.45;;
70342;SDS011;57767;42.068;24.752;2024-03-02T04:35:57;129.52;;;43.72;;
70342;SDS011;57767;42.068;24.752;2024-03-02T04:36:59;129.02;;;43.58;;
70342;SDS011;57767;42.068;24.752;2024-03-02T04:38:00;147.27;;;45.13;;
70342;SDS011;57767;42.068;24.752;2024-03-02T04:39:02;129.00;;;42.97;;
70342;SDS011;57767;42.068;24.752;2024-03-02T04:40:04;121.95;;;42.42;;
70342;SDS011;57767;42.068;24.752;2024-03-02T04:41:09;118.10;;;42.25;;
70342;SDS011;57767;42.068;24.752;2024-03-02T04:42:11;130.98;;;42.53;;
70342;SDS011;57767;42.068;24.752;2024-03-02T04:43:12;146.07;;;42.75;;
70342;SDS011;57767;42.068;24.752;2024-03-02T04:44:17;117.70;;;42.58;;
70342;SDS011;57767;42.068;24.752;2024-03-02T04:45:19;118.95;;;42.13;;
70342;SDS011;57767;42.068;24.752;2024-03-02T04:46:20;124.63;;;41.05;;
70342;SDS011;57767;42.068;24.752;2024-03-02T04:47:22;130.45;;;43.97;;
70342;SDS011;57767;42.068;24.752;2024-03-02T04:48:24;122.00;;;42.50;;
70342;SDS011;57767;42.068;24.752;2024-03-02T04:49:26;107.50;;;41.20;;
70342;SDS011;57767;42.068;24.752;2024-03-02T04:50:28;107.22;;;41.10;;
70342;SDS011;57767;42.068;24.752;2024-03-02T04:51:29;119.05;;;41.13;;
70342;SDS011;57767;42.068;24.752;2024-03-02T04:52:31;117.78;;;40.88;;
70342;SDS011;57767;42.068;24.752;2024-03-02T04:53:32;111.45;;;41.05;;
70342;SDS011;57767;42.068;24.752;2024-03-02T04:54:34;111.93;;;40.45;;
70342;SDS011;57767;42.068;24.752;2024-03-02T04:57:16;110.55;;;39.83;;
70342;SDS011;57767;42.068;24.752;2024-03-02T04:58:17;122.68;;;40.47;;
70342;SDS011;57767;42.068;24.752;2024-03-02T04:59:19;113.15;;;40.88;;
70342;SDS011;57767;42.068;24.752;2024-03-02T05:00:21;118.50;;;40.80;;
70342;SDS011;57767;42.068;24.752;2024-03-02T05:01:22;99.00;;;41.13;;
70342;SDS011;57767;42.068;24.752;2024-03-02T05:02:24;95.75;;;38.75;;
70342;SDS011;57767;42.068;24.752;2024-03-02T05:03:26;106.97;;;40.33;;
70342;SDS011;57767;42.068;24.752;2024-03-02T05:04:27;104.40;;;41.60;;
70342;SDS011;57767;42.068;24.752;2024-03-02T05:05:29;104.82;;;39.67;;
70342;SDS011;57767;42.068;24.752;2024-03-02T05:06:31;115.25;;;39.70;;
70342;SDS011;57767;42.068;24.752;2024-03-02T05:07:32;109.28;;;41.10;;
70342;SDS011;57767;42.068;24.752;2024-03-02T05:08:34;130.13;;;41.60;;
70342;SDS011;57767;42.068;24.752;2024-03-02T05:09:35;112.03;;;41.72;;
70342;SDS011;57767;42.068;24.752;2024-03-02T05:10:37;99.80;;;39.50;;
70342;SDS011;57767;42.068;24.752;2024-03-02T05:11:39;117.80;;;40.60;;
70342;SDS011;57767;42.068;24.752;2024-03-02T05:12:40;109.32;;;41.50;;
70342;SDS011;57767;42.068;24.752;2024-03-02T05:13:45;126.55;;;41.42;;
70342;SDS011;57767;42.068;24.752;2024-03-02T05:14:47;97.68;;;39.38;;
70342;SDS011;57767;42.068;24.752;2024-03-02T05:15:49;103.05;;;40.70;;
70342;SDS011;57767;42.068;24.752;2024-03-02T05:16:51;119.18;;;42.35;;
70342;SDS011;57767;42.068;24.752;2024-03-02T05:17:53;126.40;;;43.47;;
70342;SDS011;57767;42.068;24.752;2024-03-02T05:18:54;106.90;;;41.10;;
70342;SDS011;57767;42.068;24.752;2024-03-02T05:19:56;129.02;;;42.28;;
70342;SDS011;57767;42.068;24.752;2024-03-02T05:20:58;113.63;;;41.53;;
70342;SDS011;57767;42.068;24.752;2024-03-02T05:22:00;149.98;;;43.20;;
70342;SDS011;57767;42.068;24.752;2024-03-02T05:23:02;128.27;;;42.42;;
70342;SDS011;57767;42.068;24.752;2024-03-02T05:24:04;138.68;;;44.78;;
70342;SDS011;57767;42.068;24.752;2024-03-02T05:25:05;141.10;;;45.25;;
70342;SDS011;57767;42.068;24.752;2024-03-02T05:26:08;140.88;;;43.53;;
70342;SDS011;57767;42.068;24.752;2024-03-02T05:27:12;126.32;;;41.95;;
70342;SDS011;57767;42.068;24.752;2024-03-02T05:28:14;122.22;;;42.38;;
70342;SDS011;57767;42.068;24.752;2024-03-02T05:29:15;140.65;;;42.83;;
70342;SDS011;57767;42.068;24.752;2024-03-02T05:30:17;132.88;;;43.35;;
70342;SDS011;57767;42.068;24.752;2024-03-02T05:31:18;136.93;;;44.13;;
70342;SDS011;57767;42.068;24.752;2024-03-02T05:32:20;123.93;;;42.88;;
70342;SDS011;57767;42.068;24.752;2024-03-02T05:33:22;109.32;;;40.22;;
70342;SDS011;57767;42.068;24.752;2024-03-02T05:34:24;106.25;;;41.75;;
70342;SDS011;57767;42.068;24.752;2024-03-02T05:35:25;116.40;;;42.53;;
70342;SDS011;57767;42.068;24.752;2024-03-02T05:36:27;132.25;;;43.80;;
70342;SDS011;57767;42.068;24.752;2024-03-02T05:37:29;119.72;;;40.95;;
70342;SDS011;57767;42.068;24.752;2024-03-02T05:38:30;118.57;;;41.13;;
70342;SDS011;57767;42.068;24.752;2024-03-02T05:39:32;115.22;;;41.50;;
70342;SDS011;57767;42.068;24.752;2024-03-02T05:40:33;116.45;;;41.33;;
70342;SDS011;57767;42.068;24.752;2024-03-02T05:41:35;121.88;;;43.00;;
70342;SDS011;57767;42.068;24.752;2024-03-02T05:42:37;124.18;;;41.60;;
70342;SDS011;57767;42.068;24.752;2024-03-02T05:43:39;110.43;;;39.58;;
70342;SDS011;57767;42.068;24.752;2024-03-02T05:44:41;99.25;;;38.83;;
70342;SDS011;57767;42.068;24.752;2024-03-02T05:45:42;116.80;;;39.15;;
70342;SDS011;57767;42.068;24.752;2024-03-02T05:46:44;109.10;;;41.47;;
70342;SDS011;57767;42.068;24.752;2024-03-02T05:47:45;108.70;;;39.45;;
70342;SDS011;57767;42.068;24.752;2024-03-02T05:48:47;103.63;;;38.70;;
70342;SDS011;57767;42.068;24.752;2024-03-02T05:49:49;106.93;;;38.58;;
70342;SDS011;57767;42.068;24.752;2024-03-02T05:50:51;110.75;;;38.85;;
70342;SDS011;57767;42.068;24.752;2024-03-02T05:51:52;92.65;;;39.35;;
70342;SDS011;57767;42.068;24.752;2024-03-02T05:52:54;101.60;;;39.15;;
70342;SDS011;57767;42.068;24.752;2024-03-02T05:53:57;99.53;;;38.60;;
70342;SDS011;57767;42.068;24.752;2024-03-02T05:54:59;102.70;;;40.13;;
70342;SDS011;57767;42.068;24.752;2024-03-02T05:56:00;106.15;;;39.30;;
70342;SDS011;57767;42.068;24.752;2024-03-02T05:57:05;81.15;;;36.40;;
70342;SDS011;57767;42.068;24.752;2024-03-02T05:58:33;91.20;;;36.92;;
70342;SDS011;57767;42.068;24.752;2024-03-02T05:59:49;106.40;;;38.58;;
70342;SDS011;57767;42.068;24.752;2024-03-02T06:00:50;94.53;;;38.38;;
70342;SDS011;57767;42.068;24.752;2024-03-02T06:01:52;102.15;;;39.50;;
70342;SDS011;57767;42.068;24.752;2024-03-02T06:02:54;88.88;;;38.40;;
70342;SDS011;57767;42.068;24.752;2024-03-02T06:03:56;101.50;;;38.17;;
70342;SDS011;57767;42.068;24.752;2024-03-02T06:04:58;86.68;;;37.20;;